Valentín Peralta

Chefscout - Godoy Cruz
13 Nov 2027
Samstag
Verarbeitung

Persönlichkeit

Anpassungsfähigkeit (1) Ehrgeiz (6) Kontroverse (18) Loyalität (19) Druck (7) Professionalität (18) Fairness (10) Temperament (7)

Profil

Trainerstil Demokratisch
Lizenz Nationale A
Entschlossenheit 7
Menschenführung 9
Motivation 10
Disziplin 6
Arbeitszufriedenheit
82%
Ermüdung
0%
Rolle Chefscout
Gehalt 49.7K p/W
Vertrag 14.03.2029

Leistung

Verhalten Gut
Trainingseffektivität
33%
Spielerentwicklung
65%
Verletzungsprävention
60%
Taktische Umsetzung
60%

Letzte Ereignisse

Nahm an einer Scouting-Besprechung teil jetzt
Empfahl ein Transferziel jetzt
Empfahl ein Transferziel jetzt
Empfahl ein Transferziel jetzt
Empfahl ein Transferziel 7T her
Empfahl ein Transferziel 7T her
Empfahl ein Transferziel 7T her
Empfahl ein Transferziel 7T her

Aktuell beobachtet

157
Spieler Verein Status Fähigkeit Vertrauen Beobachtet Zuletzt beobachtet Letzte Stimme
Agustín Páez Maipú Aktiv 90 / 95 76% 1 07.06.2027 Befürworten
Konstantin Tyukavin Arsenal Verhandlung 132 / 133 66% 1 01.06.2027 Befürworten
Facundo Di Biasi Getafe Aktiv 118 / 127 40% 3 30.05.2027 -
Oumar Camara Vitoria Guimaraes Aktiv 125 / 123 40% 4 30.05.2027 -
Alex Verón Villarreal Aktiv 108 / 121 40% 2 30.05.2027 -
Lander Astiazarán Real Sociedad Aktiv 102 / 114 40% 3 29.05.2027 -
Gorka Gorosabel Real Sociedad Aktiv 108 / 115 40% 2 29.05.2027 -
Nestory Irankunda Watford Aktiv 120 / 132 40% 1 29.05.2027 -
Sebastián Flores Rayo Vallecano Aktiv 107 / 105 40% 4 27.05.2027 -
Christos Mouzakitis Hull City Aktiv 131 / 138 40% 2 27.05.2027 -
Sindre Walle Egeli Nottingham Forest Aktiv 136 / 134 40% 3 26.05.2027 -
Caleb Yirenkyi Coventry City Aktiv 132 / 144 40% 1 26.05.2027 -
Riley Owen Wycombe Wanderers Aktiv 107 / 106 40% 4 23.05.2027 -
Kamarni Ryan Salford City Aktiv 92 / 98 40% 3 23.05.2027 -
Othmane Maamma Watford Aktiv 129 / 128 40% 2 22.05.2027 -
Monty Batlhabane Polokwane City Aktiv 89 / 99 40% 5 21.05.2027 -
Mfundo Vilakazi Kaizer Chiefs Aktiv 118 / 109 40% 3 21.05.2027 -
Jeremías Merlo AC Milan Aktiv 124 / 128 40% 4 21.05.2027 -
Sergio Castillo Cortulua Aktiv 97 / 114 40% 1 20.05.2027 -
Daniel Awuni Aduana Stars Aktiv 101 / 97 40% 4 17.05.2027 -
Shea Lacey Millwall Aktiv 124 / 129 40% 2 17.05.2027 -
Gladson Sulemana Liberty Professionals Aktiv 98 / 97 40% 2 17.05.2027 -
Abraham Paintsil Hasaacas Aktiv 97 / 103 40% 1 16.05.2027 -
Luke Baartman Bidvest Wits Aktiv 113 / 103 40% 1 15.05.2027 -
Oscar Schwartau Norwich City Aktiv 123 / 121 40% 3 14.05.2027 -
Benjamin Tsivanyo Aduana Stars Aktiv 88 / 80 40% 1 11.05.2027 -
Alex Amorim Genoa Aktiv 129 / 140 40% 1 10.05.2027 -
Amine Moussaoui Angers SCO Aktiv 100 / 110 40% 3 09.05.2027 -
Facundo Balatti Penarol Aktiv 101 / 109 40% 1 09.05.2027 -
Diogo Guzmán Montevideo City Torque Aktiv 111 / 118 40% 3 08.05.2027 -
Mateo Silvetti Inter Miami CF Aktiv 115 / 119 40% 1 08.05.2027 -
Stevan Manuel Benfica Aktiv 99 / 102 40% 1 06.05.2027 -
Lautaro Gutiérrez Girona Aktiv 102 / 114 40% 5 04.05.2027 -
Ronwen Khune Black Aces Aktiv 101 / 108 40% 1 04.05.2027 -
Paulo Iago Sporting CP Aktiv 96 / 98 40% 1 02.05.2027 -
Jonathan De Irastorza Levante Aktiv 125 / 128 40% 5 01.05.2027 -
Matías Gómez Valencia Aktiv 112 / 122 40% 2 28.04.2027 -
Tobías Andrada Betis Aktiv 119 / 124 40% 2 27.04.2027 -
Bradley Zwane SuperSport United Aktiv 113 / 108 40% 2 26.04.2027 -
Araphat Mohammed Medeama Aktiv 111 / 109 40% 2 22.04.2027 -
Manu Rodríguez Gijón Aktiv 109 / 104 40% 2 22.04.2027 -
Martim Cunha Porto Aktiv 99 / 107 40% 1 20.04.2027 -
Jay Robinson Southampton Aktiv 120 / 134 40% 1 20.04.2027 -
Sneider Navarro Metropolitanos Aktiv 97 / 109 40% 1 20.04.2027 -
Nicolás Azambuja Danubio Aktiv 119 / 127 40% 1 18.04.2027 -
Ricardo Solbes Getafe Aktiv 101 / 103 40% 3 15.04.2027 -
Sam Curtis Swindon Town Aktiv 100 / 100 40% 1 15.04.2027 -
Joel Orlando Real Sociedad Aktiv 114 / 117 40% 1 07.04.2027 -
Toni Fruk Valladolid Aktiv 132 / 133 66% 1 01.12.2026 Befürworten
Pedro de la Vega Leganés Aktiv 133 / 134 66% 1 01.12.2026 Befürworten
Mao Hosoya Manchester City Verhandlung 134 / 135 67% 1 01.12.2026 Befürworten
Fernando Mimbacas Juventud Aktiv 115 / 114 40% 2 30.11.2026 -
Luca Langoni New England Revolution Aktiv 133 / 122 40% 6 28.11.2026 -
Camilo Durán Bloemfontein Celtic Aktiv 112 / 126 40% 3 28.11.2026 -
Francisco Bareiro Vaduz Aktiv 100 / 107 40% 1 28.11.2026 -
Matías Palavecino Universidad Catolica Aktiv 109 / 113 40% 6 26.11.2026 -
Tomás Escalante Plaza Colonia Aktiv 119 / 122 40% 8 25.11.2026 -
Luciano Boggio Nacional Aktiv 119 / 121 40% 5 25.11.2026 -
Joaquín Pereyra Minnesota United FC Aktiv 128 / 138 40% 3 25.11.2026 -
Ezequiel Cañete Huachipato Aktiv 114 / 112 40% 8 24.11.2026 -
Martín Ojeda Orlando City Aktiv 136 / 129 40% 6 24.11.2026 -
Santiago Pierotti Lecce Aktiv 132 / 133 40% 3 23.11.2026 -
Juan Bisanz Huracán Aktiv 133 / 132 40% 3 22.11.2026 -
Brian Figueroa Morelia Aktiv 115 / 96 40% 1 22.11.2026 -
Tobías Bovone Deportivo Pereira Aktiv 106 / 112 40% 4 21.11.2026 -
Emiliano Saliadarre Miramar Misiones Aktiv 116 / 115 40% 8 21.11.2026 -
Santiago Toloza O'Higgins Aktiv 122 / 126 40% 3 21.11.2026 -
Alex Luna Instituto Aktiv 130 / 125 40% 6 20.11.2026 -
Damián Puebla Orenburg Aktiv 120 / 133 40% 1 20.11.2026 -
Juan Velázquez Atlético Madrid Aktiv 124 / 128 40% 3 19.11.2026 -
Juan Larios Piast Aktiv 117 / 124 40% 1 19.11.2026 -
Matías Fernández Independiente Rivadavia Aktiv 126 / 124 40% 1 19.11.2026 -
Agustín Maidana San Marcos de Arica Aktiv 111 / 105 40% 3 18.11.2026 -
Gonzalo Silva Progreso Aktiv 103 / 107 40% 2 18.11.2026 -
Nicolás Garayalde Liverpool Montevideo Aktiv 116 / 112 40% 5 17.11.2026 -
Tobías Reinhart Universidad de Chile Aktiv 125 / 123 40% 3 16.11.2026 -
Alejo Macelli Cerro Aktiv 112 / 104 40% 4 14.11.2026 -
Juan-José Perea Zurich Aktiv 120 / 123 40% 1 14.11.2026 -
Andrés Herrera Columbus Crew Aktiv 122 / 129 40% 4 13.11.2026 -
Jeon Jin-Woo Sheffield Wednesday Aktiv 134 / 123 40% 1 13.11.2026 -
Ramiro Peralta Juventud Aktiv 113 / 125 40% 2 11.11.2026 -
Federico Girotti Alianza Lima Aktiv 127 / 118 40% 3 11.11.2026 -
Facundo de León Progreso Aktiv 102 / 112 40% 1 11.11.2026 -
Santiago Rodríguez Gimnasia y Esgrima Aktiv 126 / 121 40% 1 10.11.2026 -
Ramiro Ruiz Rodríguez Atlético Tucumán Aktiv 121 / 125 40% 1 08.11.2026 -
Alexander Díaz Deportivo Riestra Aktiv 122 / 123 40% 1 08.11.2026 -
Tomás Chancalay Minnesota United FC Aktiv 130 / 124 40% 4 05.11.2026 -
Braian Álvarez Avellino Aktiv 108 / 100 40% 1 05.11.2026 -
Franco Alfonso Olimpia Aktiv 111 / 113 40% 3 04.11.2026 -
Leandro Suhr Piast Aktiv 110 / 122 40% 1 03.11.2026 -
Enzo Avaro Mitre Aktiv 105 / 110 40% 1 31.10.2026 -
Facundo Mura Inter Miami CF Aktiv 121 / 124 40% 3 28.10.2026 -
Joaquín Gho Argentinos Juniors Aktiv 129 / 119 40% 1 27.10.2026 -
Luka Andrade Montevideo City Torque Aktiv 92 / 110 40% 1 27.10.2026 -
Julián Brea Cobresal Aktiv 99 / 104 40% 4 23.10.2026 -
Agustín Paz Progreso Aktiv 118 / 114 40% 3 20.10.2026 -
Maximiliano Rodríguez Huachipato Aktiv 110 / 109 40% 1 20.10.2026 -
Rodrigo Chagas Juventud Aktiv 111 / 116 40% 1 20.10.2026 -
Rodrigo Insúa Cagliari Aktiv 116 / 113 40% 1 19.10.2026 -
Ignacio Aliseda Cerro Porteno Aktiv 121 / 126 40% 4 16.10.2026 -
Franco Troyansky Audax Italiano Aktiv 106 / 112 40% 2 15.10.2026 -
Facundo Batista Penarol Aktiv 117 / 116 40% 2 15.10.2026 -
Matías Contrera Northampton Town Aktiv 96 / 100 40% 1 15.10.2026 -
Martín Sarrafiore O'Higgins Aktiv 115 / 117 40% 5 13.10.2026 -
Agustín Venezia Iquique Aktiv 104 / 106 40% 5 13.10.2026 -
Diego Sánchez Progreso Aktiv 110 / 103 40% 1 13.10.2026 -
Martin Carreño San Luis Aktiv 91 / 94 40% 1 10.10.2026 -
Rodrigo Villalba Libertad Aktiv 97 / 96 40% 1 10.10.2026 -
Matías Espíndola Deportivo Maldonado Aktiv 100 / 108 40% 1 10.10.2026 -
Lucas Di Yorio Santos Laguna Aktiv 123 / 111 40% 7 05.10.2026 -
Lucas Acosta Liverpool Montevideo Aktiv 108 / 105 40% 2 05.10.2026 -
Francisco Bonfiglio Boston River Aktiv 109 / 113 40% 2 05.10.2026 -
Ignacio Schor O'Higgins Aktiv 118 / 114 40% 5 03.10.2026 -
Jonatan Torres Cerro Porteno Aktiv 122 / 119 40% 3 03.10.2026 -
Iván Angulo Orlando City Aktiv 119 / 137 40% 2 03.10.2026 -
Alejo Cruz Juventud Aktiv 121 / 122 40% 1 03.10.2026 -
Alejandro Piedrahita Deportivo Pereira Aktiv 123 / 116 40% 2 30.09.2026 -
Jefry Zapata Once Caldas Aktiv 123 / 121 40% 1 30.09.2026 -
Fernando Valenzuela Queretaro Aktiv 120 / 119 40% 3 27.09.2026 -
Ezequiel Bullaude Santos Laguna Aktiv 116 / 117 40% 5 26.09.2026 -
Nicolás Castro Toluca Aktiv 121 / 131 40% 3 26.09.2026 -
Bautista Tomatis Racing Aktiv 102 / 107 40% 3 26.09.2026 -
Francisco González Tijuana Aktiv 117 / 117 40% 7 25.09.2026 -
Ramiro Sordo Santos Laguna Aktiv 114 / 128 40% 5 25.09.2026 -
Nicolás González Plaza Colonia Aktiv 105 / 109 40% 1 24.09.2026 -
Jean Pierre Rosso Liverpool Montevideo Aktiv 117 / 110 40% 2 20.09.2026 -
Segundo Pachamé Plaza Colonia Aktiv 106 / 106 40% 1 19.09.2026 -
Bautista Pereira Danubio Aktiv 95 / 96 40% 1 19.09.2026 -
José Alberti Wanderers Aktiv 118 / 128 40% 1 16.09.2026 -
Franco Romero Toluca Aktiv 135 / 128 40% 2 15.09.2026 -
Tadeo Allende Inter Miami CF Aktiv 117 / 112 40% 2 15.09.2026 -
Mauro Valiente Chiapas Aktiv 120 / 115 40% 1 14.09.2026 -
Emiliano Álvarez Progreso Aktiv 120 / 115 40% 2 13.09.2026 -
Juninho Pumas UNAM Aktiv 121 / 128 40% 2 13.09.2026 -
Diego Chávez Deportivo Pasto Aktiv 118 / 113 40% 2 12.09.2026 -
Nicolás Benedetti Deportivo Cali Aktiv 126 / 120 40% 1 11.09.2026 -
Guillermo Paiva Junior Aktiv 120 / 126 40% 1 09.09.2026 -
Florián Monzón Atlas Aktiv 124 / 122 40% 1 09.09.2026 -
Uriel Antuna Pumas UNAM Aktiv 141 / 142 40% 1 07.09.2026 -
Lautaro Lusnig Deportivo Tachira Aktiv 104 / 111 40% 2 06.09.2026 -
Santiago Simón Toluca Aktiv 125 / 125 40% 3 06.09.2026 -
Maicol Ferreira Danubio Aktiv 110 / 105 40% 1 05.09.2026 -
Joaquín Blanco Wanderers Aktiv 82 / 84 40% 1 05.09.2026 -
Tomás Moschion Albion Aktiv 104 / 102 40% 1 31.08.2026 -
Emanuel Cecchini Juventud Aktiv 109 / 106 40% 1 29.08.2026 -
Agustín Araujo Trujillanos Aktiv 100 / 109 40% 3 28.08.2026 -
Mauro Cachi Fenix Aktiv 112 / 107 40% 1 27.08.2026 -
Nahuel Furtado Wanderers Aktiv 129 / 132 40% 1 25.08.2026 -
Brian Calderara Morelia Aktiv 109 / 106 40% 2 18.08.2026 -
Braian Galván Oriental Aktiv 102 / 101 40% 1 18.08.2026 -
Emerson Batalla Atletico Bucaramanga Aktiv 126 / 118 40% 1 18.08.2026 -
Francisco Manenti Metropolitanos Aktiv 109 / 98 40% 1 15.08.2026 -
Milton Valenzuela Atlas Aktiv 116 / 109 40% 1 13.08.2026 -
Facundo Velazco San Marcos de Arica Aktiv 98 / 97 40% 1 06.08.2026 -
Mateo García Atlas Aktiv 100 / 111 40% 1 04.08.2026 -
David Ayala Inter Miami CF Aktiv 127 / 111 40% 1 03.08.2026 -
Francisco Galván Deportivo Municipal Aktiv 103 / 110 40% 1 03.08.2026 -